CheckWX is a tool to help pilots better visualize weather data.  It is not intended as a substitute for an official pre-flight weather briefing.

15:28:21 UTC

KICT TAF
Wichita Dwight D Eisenhower National Airport
Wichita, Kansas, USA
KICT 191134Z 1912/2012 VRB03KT P6SM FEW200 FM191700 15006KT P6SM FEW200 FM200200 15012KT P6SM FEW250 FM200500 15012KT P6SM FEW250 WS020/18045KT

Nov-19@
12:00 UTC

Nov-19 @ 12:00 UTC

Nov-19@
17:00 UTC

Nov-19 @ 17:00 UTC

KICT 191134Z 1912/2012 VRB03KT P6SM FEW200
Wind
  • Variable at 3 KTS
Cloud Levels
  • Few at 20,000' AGL

Nov-19@
17:00 UTC

Nov-19 @ 17:00 UTC

Nov-20@
02:00 UTC

Nov-20 @ 02:00 UTC

FM191700 15006KT P6SM FEW200

From

From Standard forecast or significant change

Wind
  • 150° at 6 KTS
Cloud Levels
  • Few at 20,000' AGL

Nov-20@
02:00 UTC

Nov-20 @ 02:00 UTC

Nov-20@
05:00 UTC

Nov-20 @ 05:00 UTC

FM200200 15012KT P6SM FEW250

From

From Standard forecast or significant change

Wind
  • 150° at 12 KTS
Cloud Levels
  • Few at 25,000' AGL

Nov-20@
05:00 UTC

Nov-20 @ 05:00 UTC

Nov-20@
12:00 UTC

Nov-20 @ 12:00 UTC

FM200500 15012KT P6SM FEW250 WS020/18045KT

From

From Standard forecast or significant change

Wind
  • 150° at 12 KTS
Cloud Levels
  • Few at 25,000' AGL